sensor_id;sensor_type;location;lat;lon;timestamp;P1;durP1;ratioP1;P2;durP2;ratioP2
69847;SDS011;57143;55.940;37.496;2023-11-19T00:01:36;25.73;;;8.88;;
69847;SDS011;57143;55.940;37.496;2023-11-19T00:04:03;28.43;;;9.43;;
69847;SDS011;57143;55.940;37.496;2023-11-19T00:06:31;29.65;;;11.30;;
69847;SDS011;57143;55.940;37.496;2023-11-19T00:08:58;23.63;;;9.85;;
69847;SDS011;57143;55.940;37.496;2023-11-19T00:11:26;28.67;;;10.65;;
69847;SDS011;57143;55.940;37.496;2023-11-19T00:13:55;25.75;;;8.13;;
69847;SDS011;57143;55.940;37.496;2023-11-19T00:16:22;27.63;;;10.40;;
69847;SDS011;57143;55.940;37.496;2023-11-19T00:18:49;39.40;;;10.98;;
69847;SDS011;57143;55.940;37.496;2023-11-19T00:21:16;31.52;;;11.98;;
69847;SDS011;57143;55.940;37.496;2023-11-19T00:23:43;25.67;;;9.25;;
69847;SDS011;57143;55.940;37.496;2023-11-19T00:26:11;22.63;;;9.40;;
69847;SDS011;57143;55.940;37.496;2023-11-19T00:28:40;22.70;;;10.20;;
69847;SDS011;57143;55.940;37.496;2023-11-19T00:31:09;25.00;;;11.13;;
69847;SDS011;57143;55.940;37.496;2023-11-19T00:33:37;18.95;;;8.18;;
69847;SDS011;57143;55.940;37.496;2023-11-19T00:36:05;26.27;;;8.05;;
69847;SDS011;57143;55.940;37.496;2023-11-19T00:38:33;26.17;;;10.82;;
69847;SDS011;57143;55.940;37.496;2023-11-19T00:41:00;26.60;;;10.53;;
69847;SDS011;57143;55.940;37.496;2023-11-19T00:43:27;28.42;;;10.27;;
69847;SDS011;57143;55.940;37.496;2023-11-19T00:45:55;32.85;;;9.98;;
69847;SDS011;57143;55.940;37.496;2023-11-19T00:48:23;22.02;;;9.40;;
69847;SDS011;57143;55.940;37.496;2023-11-19T00:50:52;35.03;;;10.57;;
69847;SDS011;57143;55.940;37.496;2023-11-19T00:53:19;34.20;;;8.70;;
69847;SDS011;57143;55.940;37.496;2023-11-19T00:55:46;27.02;;;8.32;;
69847;SDS011;57143;55.940;37.496;2023-11-19T00:58:13;17.58;;;8.35;;
69847;SDS011;57143;55.940;37.496;2023-11-19T01:00:42;18.52;;;7.63;;
69847;SDS011;57143;55.940;37.496;2023-11-19T01:03:10;19.55;;;8.43;;
69847;SDS011;57143;55.940;37.496;2023-11-19T01:05:39;46.20;;;8.27;;
69847;SDS011;57143;55.940;37.496;2023-11-19T01:08:06;23.15;;;9.55;;
69847;SDS011;57143;55.940;37.496;2023-11-19T01:10:36;30.90;;;9.82;;
69847;SDS011;57143;55.940;37.496;2023-11-19T01:13:04;28.30;;;9.85;;
69847;SDS011;57143;55.940;37.496;2023-11-19T01:15:31;32.08;;;10.07;;
69847;SDS011;57143;55.940;37.496;2023-11-19T01:17:59;26.83;;;8.90;;
69847;SDS011;57143;55.940;37.496;2023-11-19T01:20:27;34.78;;;10.73;;
69847;SDS011;57143;55.940;37.496;2023-11-19T01:22:56;20.52;;;9.40;;
69847;SDS011;57143;55.940;37.496;2023-11-19T01:25:23;23.60;;;8.88;;
69847;SDS011;57143;55.940;37.496;2023-11-19T01:27:50;24.63;;;11.05;;
69847;SDS011;57143;55.940;37.496;2023-11-19T01:30:17;19.07;;;8.27;;
69847;SDS011;57143;55.940;37.496;2023-11-19T01:32:45;42.60;;;10.73;;
69847;SDS011;57143;55.940;37.496;2023-11-19T01:35:12;23.55;;;9.93;;
69847;SDS011;57143;55.940;37.496;2023-11-19T01:37:40;27.45;;;9.63;;
69847;SDS011;57143;55.940;37.496;2023-11-19T01:40:09;34.85;;;11.57;;
69847;SDS011;57143;55.940;37.496;2023-11-19T01:42:37;66.10;;;11.17;;
69847;SDS011;57143;55.940;37.496;2023-11-19T01:45:05;28.65;;;8.30;;
69847;SDS011;57143;55.940;37.496;2023-11-19T01:47:34;25.00;;;10.13;;
69847;SDS011;57143;55.940;37.496;2023-11-19T01:50:02;28.02;;;11.65;;
69847;SDS011;57143;55.940;37.496;2023-11-19T01:52:33;31.83;;;9.50;;
69847;SDS011;57143;55.940;37.496;2023-11-19T01:55:02;28.70;;;9.43;;
69847;SDS011;57143;55.940;37.496;2023-11-19T01:57:32;26.63;;;9.80;;
69847;SDS011;57143;55.940;37.496;2023-11-19T02:00:00;26.23;;;10.63;;
69847;SDS011;57143;55.940;37.496;2023-11-19T02:02:30;20.98;;;9.55;;
69847;SDS011;57143;55.940;37.496;2023-11-19T02:04:58;25.92;;;11.13;;
69847;SDS011;57143;55.940;37.496;2023-11-19T02:07:25;33.33;;;10.97;;
69847;SDS011;57143;55.940;37.496;2023-11-19T02:09:52;26.10;;;9.65;;
69847;SDS011;57143;55.940;37.496;2023-11-19T02:12:20;27.38;;;10.00;;
69847;SDS011;57143;55.940;37.496;2023-11-19T02:14:48;29.33;;;9.25;;
69847;SDS011;57143;55.940;37.496;2023-11-19T02:17:25;22.17;;;9.52;;
69847;SDS011;57143;55.940;37.496;2023-11-19T02:19:53;25.23;;;9.33;;
69847;SDS011;57143;55.940;37.496;2023-11-19T02:22:20;25.55;;;9.25;;
69847;SDS011;57143;55.940;37.496;2023-11-19T02:24:47;23.20;;;9.25;;
69847;SDS011;57143;55.940;37.496;2023-11-19T02:27:20;20.25;;;8.10;;
69847;SDS011;57143;55.940;37.496;2023-11-19T02:29:57;26.40;;;9.50;;
69847;SDS011;57143;55.940;37.496;2023-11-19T02:32:27;24.20;;;8.80;;
69847;SDS011;57143;55.940;37.496;2023-11-19T02:34:56;24.98;;;9.15;;
69847;SDS011;57143;55.940;37.496;2023-11-19T02:37:23;31.75;;;11.40;;
69847;SDS011;57143;55.940;37.496;2023-11-19T02:39:51;21.67;;;8.25;;
69847;SDS011;57143;55.940;37.496;2023-11-19T02:42:18;34.95;;;10.80;;
69847;SDS011;57143;55.940;37.496;2023-11-19T02:44:45;20.83;;;9.37;;
69847;SDS011;57143;55.940;37.496;2023-11-19T02:47:15;24.00;;;9.90;;
69847;SDS011;57143;55.940;37.496;2023-11-19T02:49:42;27.80;;;9.05;;
69847;SDS011;57143;55.940;37.496;2023-11-19T02:52:09;28.83;;;9.63;;
69847;SDS011;57143;55.940;37.496;2023-11-19T02:54:37;22.05;;;9.85;;
69847;SDS011;57143;55.940;37.496;2023-11-19T02:57:04;18.33;;;7.50;;
69847;SDS011;57143;55.940;37.496;2023-11-19T02:59:35;20.48;;;7.90;;
69847;SDS011;57143;55.940;37.496;2023-11-19T03:02:07;17.98;;;7.15;;
69847;SDS011;57143;55.940;37.496;2023-11-19T03:04:38;18.95;;;7.90;;
69847;SDS011;57143;55.940;37.496;2023-11-19T03:07:06;22.77;;;8.82;;
69847;SDS011;57143;55.940;37.496;2023-11-19T03:09:33;19.17;;;8.40;;
69847;SDS011;57143;55.940;37.496;2023-11-19T03:12:01;21.38;;;8.88;;
69847;SDS011;57143;55.940;37.496;2023-11-19T03:14:32;17.00;;;7.60;;
69847;SDS011;57143;55.940;37.496;2023-11-19T03:17:00;23.35;;;7.55;;
69847;SDS011;57143;55.940;37.496;2023-11-19T03:19:28;20.85;;;8.45;;
69847;SDS011;57143;55.940;37.496;2023-11-19T03:21:57;21.07;;;7.27;;
69847;SDS011;57143;55.940;37.496;2023-11-19T03:24:24;23.88;;;7.07;;
69847;SDS011;57143;55.940;37.496;2023-11-19T03:26:52;20.77;;;8.20;;
69847;SDS011;57143;55.940;37.496;2023-11-19T03:29:19;24.55;;;7.00;;
69847;SDS011;57143;55.940;37.496;2023-11-19T03:31:46;22.67;;;7.95;;
69847;SDS011;57143;55.940;37.496;2023-11-19T03:34:13;20.83;;;7.53;;
69847;SDS011;57143;55.940;37.496;2023-11-19T03:36:41;18.23;;;7.43;;
69847;SDS011;57143;55.940;37.496;2023-11-19T03:39:10;21.50;;;7.85;;
69847;SDS011;57143;55.940;37.496;2023-11-19T03:41:37;26.75;;;7.22;;
69847;SDS011;57143;55.940;37.496;2023-11-19T03:44:04;18.63;;;6.95;;
69847;SDS011;57143;55.940;37.496;2023-11-19T03:46:32;17.20;;;7.03;;
69847;SDS011;57143;55.940;37.496;2023-11-19T03:49:00;25.67;;;7.65;;
69847;SDS011;57143;55.940;37.496;2023-11-19T03:51:27;14.77;;;6.15;;
69847;SDS011;57143;55.940;37.496;2023-11-19T03:53:54;20.20;;;7.30;;
69847;SDS011;57143;55.940;37.496;2023-11-19T03:56:23;16.73;;;6.93;;
69847;SDS011;57143;55.940;37.496;2023-11-19T03:58:50;22.67;;;8.83;;
69847;SDS011;57143;55.940;37.496;2023-11-19T04:01:17;18.27;;;6.72;;
69847;SDS011;57143;55.940;37.496;2023-11-19T04:03:44;20.25;;;7.80;;
69847;SDS011;57143;55.940;37.496;2023-11-19T04:06:12;16.98;;;6.35;;
69847;SDS011;57143;55.940;37.496;2023-11-19T04:08:39;20.30;;;7.28;;
69847;SDS011;57143;55.940;37.496;2023-11-19T04:11:06;28.93;;;7.60;;
69847;SDS011;57143;55.940;37.496;2023-11-19T04:13:35;19.92;;;7.93;;
69847;SDS011;57143;55.940;37.496;2023-11-19T04:16:03;36.65;;;10.13;;
69847;SDS011;57143;55.940;37.496;2023-11-19T04:18:31;28.67;;;10.13;;
69847;SDS011;57143;55.940;37.496;2023-11-19T04:20:58;18.77;;;7.45;;
69847;SDS011;57143;55.940;37.496;2023-11-19T04:23:25;23.83;;;8.10;;
69847;SDS011;57143;55.940;37.496;2023-11-19T04:25:52;22.55;;;9.43;;
69847;SDS011;57143;55.940;37.496;2023-11-19T04:28:20;22.98;;;9.88;;
69847;SDS011;57143;55.940;37.496;2023-11-19T04:30:49;23.75;;;8.68;;
69847;SDS011;57143;55.940;37.496;2023-11-19T04:33:16;27.20;;;7.97;;
69847;SDS011;57143;55.940;37.496;2023-11-19T04:35:43;23.27;;;8.73;;
69847;SDS011;57143;55.940;37.496;2023-11-19T04:38:10;28.40;;;8.40;;
69847;SDS011;57143;55.940;37.496;2023-11-19T04:40:37;18.23;;;7.45;;
69847;SDS011;57143;55.940;37.496;2023-11-19T04:43:05;19.60;;;7.07;;
69847;SDS011;57143;55.940;37.496;2023-11-19T04:45:32;18.15;;;7.20;;
69847;SDS011;57143;55.940;37.496;2023-11-19T04:48:01;18.93;;;7.57;;
69847;SDS011;57143;55.940;37.496;2023-11-19T04:50:28;27.17;;;8.13;;
69847;SDS011;57143;55.940;37.496;2023-11-19T04:52:55;23.08;;;8.05;;
69847;SDS011;57143;55.940;37.496;2023-11-19T04:55:23;16.52;;;7.32;;
69847;SDS011;57143;55.940;37.496;2023-11-19T04:57:50;25.10;;;7.30;;
69847;SDS011;57143;55.940;37.496;2023-11-19T05:00:17;18.00;;;6.17;;
69847;SDS011;57143;55.940;37.496;2023-11-19T05:02:46;23.15;;;7.80;;
69847;SDS011;57143;55.940;37.496;2023-11-19T05:05:16;37.47;;;7.70;;
69847;SDS011;57143;55.940;37.496;2023-11-19T05:07:44;19.13;;;6.15;;
69847;SDS011;57143;55.940;37.496;2023-11-19T05:10:11;38.65;;;9.10;;
69847;SDS011;57143;55.940;37.496;2023-11-19T05:12:38;21.97;;;7.80;;
69847;SDS011;57143;55.940;37.496;2023-11-19T05:15:06;17.42;;;7.25;;
69847;SDS011;57143;55.940;37.496;2023-11-19T05:17:34;28.23;;;8.25;;
69847;SDS011;57143;55.940;37.496;2023-11-19T05:20:02;24.42;;;7.55;;
69847;SDS011;57143;55.940;37.496;2023-11-19T05:22:31;26.38;;;8.98;;
69847;SDS011;57143;55.940;37.496;2023-11-19T05:24:59;21.50;;;8.10;;
69847;SDS011;57143;55.940;37.496;2023-11-19T05:27:29;23.15;;;7.88;;
69847;SDS011;57143;55.940;37.496;2023-11-19T05:29:56;22.40;;;9.30;;
69847;SDS011;57143;55.940;37.496;2023-11-19T05:32:23;28.90;;;8.57;;
69847;SDS011;57143;55.940;37.496;2023-11-19T05:34:51;18.90;;;7.95;;
69847;SDS011;57143;55.940;37.496;2023-11-19T05:37:18;40.47;;;7.67;;
69847;SDS011;57143;55.940;37.496;2023-11-19T05:39:46;26.85;;;9.32;;
69847;SDS011;57143;55.940;37.496;2023-11-19T05:42:14;24.60;;;9.20;;
69847;SDS011;57143;55.940;37.496;2023-11-19T05:44:41;39.38;;;9.48;;
69847;SDS011;57143;55.940;37.496;2023-11-19T05:47:08;33.20;;;8.98;;
69847;SDS011;57143;55.940;37.496;2023-11-19T05:49:36;23.87;;;8.57;;
69847;SDS011;57143;55.940;37.496;2023-11-19T05:52:03;25.92;;;8.82;;
69847;SDS011;57143;55.940;37.496;2023-11-19T05:54:32;19.58;;;8.60;;
69847;SDS011;57143;55.940;37.496;2023-11-19T05:57:04;24.65;;;8.40;;
69847;SDS011;57143;55.940;37.496;2023-11-19T05:59:34;28.90;;;8.82;;
69847;SDS011;57143;55.940;37.496;2023-11-19T06:02:01;28.43;;;8.80;;
69847;SDS011;57143;55.940;37.496;2023-11-19T06:04:29;26.15;;;9.30;;
69847;SDS011;57143;55.940;37.496;2023-11-19T06:06:56;28.70;;;9.07;;
69847;SDS011;57143;55.940;37.496;2023-11-19T06:09:23;22.88;;;9.57;;
69847;SDS011;57143;55.940;37.496;2023-11-19T06:11:50;21.83;;;8.93;;
69847;SDS011;57143;55.940;37.496;2023-11-19T06:14:19;22.63;;;8.67;;
69847;SDS011;57143;55.940;37.496;2023-11-19T06:16:47;18.30;;;7.93;;
69847;SDS011;57143;55.940;37.496;2023-11-19T06:19:14;26.67;;;8.88;;
69847;SDS011;57143;55.940;37.496;2023-11-19T06:21:41;24.67;;;9.65;;
69847;SDS011;57143;55.940;37.496;2023-11-19T06:24:08;27.88;;;9.07;;
69847;SDS011;57143;55.940;37.496;2023-11-19T06:26:35;19.37;;;9.30;;
69847;SDS011;57143;55.940;37.496;2023-11-19T06:29:03;24.48;;;8.63;;
69847;SDS011;57143;55.940;37.496;2023-11-19T06:31:31;22.20;;;7.78;;
69847;SDS011;57143;55.940;37.496;2023-11-19T06:33:58;17.00;;;7.22;;
69847;SDS011;57143;55.940;37.496;2023-11-19T06:36:26;19.85;;;7.88;;
69847;SDS011;57143;55.940;37.496;2023-11-19T06:38:56;26.93;;;7.53;;
69847;SDS011;57143;55.940;37.496;2023-11-19T06:41:23;28.23;;;7.75;;
69847;SDS011;57143;55.940;37.496;2023-11-19T06:43:50;18.80;;;7.65;;
69847;SDS011;57143;55.940;37.496;2023-11-19T06:46:18;16.85;;;6.45;;
69847;SDS011;57143;55.940;37.496;2023-11-19T06:48:47;23.42;;;7.88;;
69847;SDS011;57143;55.940;37.496;2023-11-19T06:51:14;18.77;;;6.97;;
69847;SDS011;57143;55.940;37.496;2023-11-19T06:53:42;15.77;;;6.30;;
69847;SDS011;57143;55.940;37.496;2023-11-19T06:56:17;14.60;;;5.85;;
69847;SDS011;57143;55.940;37.496;2023-11-19T06:58:46;20.35;;;5.78;;
69847;SDS011;57143;55.940;37.496;2023-11-19T07:01:14;16.30;;;6.18;;
69847;SDS011;57143;55.940;37.496;2023-11-19T07:03:42;15.10;;;5.80;;
69847;SDS011;57143;55.940;37.496;2023-11-19T07:06:11;17.55;;;6.63;;
69847;SDS011;57143;55.940;37.496;2023-11-19T07:08:39;17.48;;;6.18;;
69847;SDS011;57143;55.940;37.496;2023-11-19T07:11:07;14.07;;;5.68;;
69847;SDS011;57143;55.940;37.496;2023-11-19T07:13:36;15.45;;;5.30;;
69847;SDS011;57143;55.940;37.496;2023-11-19T07:16:04;11.80;;;4.13;;
69847;SDS011;57143;55.940;37.496;2023-11-19T07:18:35;19.40;;;5.10;;
69847;SDS011;57143;55.940;37.496;2023-11-19T07:21:03;16.15;;;5.22;;
69847;SDS011;57143;55.940;37.496;2023-11-19T07:23:33;13.57;;;5.15;;
69847;SDS011;57143;55.940;37.496;2023-11-19T07:26:00;13.68;;;4.75;;
69847;SDS011;57143;55.940;37.496;2023-11-19T07:28:27;14.10;;;6.17;;
69847;SDS011;57143;55.940;37.496;2023-11-19T07:30:55;15.20;;;5.82;;
69847;SDS011;57143;55.940;37.496;2023-11-19T07:33:22;19.95;;;6.13;;
69847;SDS011;57143;55.940;37.496;2023-11-19T07:35:49;15.50;;;6.25;;
69847;SDS011;57143;55.940;37.496;2023-11-19T07:38:17;13.38;;;5.38;;
69847;SDS011;57143;55.940;37.496;2023-11-19T07:40:46;10.53;;;4.60;;
69847;SDS011;57143;55.940;37.496;2023-11-19T07:43:14;16.23;;;5.38;;
69847;SDS011;57143;55.940;37.496;2023-11-19T07:45:41;15.05;;;4.88;;
69847;SDS011;57143;55.940;37.496;2023-11-19T07:48:09;14.85;;;5.97;;
69847;SDS011;57143;55.940;37.496;2023-11-19T07:50:36;13.52;;;4.35;;
69847;SDS011;57143;55.940;37.496;2023-11-19T07:53:03;11.87;;;4.83;;
69847;SDS011;57143;55.940;37.496;2023-11-19T07:55:31;15.93;;;4.85;;
69847;SDS011;57143;55.940;37.496;2023-11-19T07:57:59;11.85;;;4.80;;
69847;SDS011;57143;55.940;37.496;2023-11-19T08:00:26;21.88;;;5.60;;
69847;SDS011;57143;55.940;37.496;2023-11-19T08:02:54;10.88;;;4.50;;
69847;SDS011;57143;55.940;37.496;2023-11-19T08:05:21;20.80;;;5.07;;
69847;SDS011;57143;55.940;37.496;2023-11-19T08:07:50;13.95;;;4.75;;
69847;SDS011;57143;55.940;37.496;2023-11-19T08:10:18;11.80;;;4.53;;
69847;SDS011;57143;55.940;37.496;2023-11-19T08:12:45;13.70;;;4.40;;
69847;SDS011;57143;55.940;37.496;2023-11-19T08:15:14;12.57;;;4.25;;
69847;SDS011;57143;55.940;37.496;2023-11-19T08:17:41;8.40;;;2.87;;
69847;SDS011;57143;55.940;37.496;2023-11-19T08:20:08;8.07;;;2.53;;
69847;SDS011;57143;55.940;37.496;2023-11-19T08:22:36;12.32;;;3.40;;
69847;SDS011;57143;55.940;37.496;2023-11-19T08:25:04;11.88;;;4.05;;
69847;SDS011;57143;55.940;37.496;2023-11-19T08:27:32;10.65;;;3.63;;
69847;SDS011;57143;55.940;37.496;2023-11-19T08:30:00;8.63;;;3.60;;
69847;SDS011;57143;55.940;37.496;2023-11-19T08:32:29;10.88;;;4.13;;
69847;SDS011;57143;55.940;37.496;2023-11-19T08:34:56;21.40;;;3.78;;
69847;SDS011;57143;55.940;37.496;2023-11-19T08:37:23;19.98;;;4.32;;
69847;SDS011;57143;55.940;37.496;2023-11-19T08:39:50;9.55;;;4.07;;
69847;SDS011;57143;55.940;37.496;2023-11-19T08:42:18;11.23;;;3.97;;
69847;SDS011;57143;55.940;37.496;2023-11-19T08:44:49;20.88;;;5.05;;
69847;SDS011;57143;55.940;37.496;2023-11-19T08:47:19;19.25;;;5.53;;
69847;SDS011;57143;55.940;37.496;2023-11-19T08:49:49;15.52;;;8.23;;
69847;SDS011;57143;55.940;37.496;2023-11-19T08:52:18;14.77;;;7.18;;
69847;SDS011;57143;55.940;37.496;2023-11-19T08:54:45;18.17;;;6.10;;
69847;SDS011;57143;55.940;37.496;2023-11-19T08:57:12;15.98;;;5.57;;
69847;SDS011;57143;55.940;37.496;2023-11-19T08:59:39;16.30;;;5.30;;
69847;SDS011;57143;55.940;37.496;2023-11-19T09:02:07;11.85;;;3.30;;
69847;SDS011;57143;55.940;37.496;2023-11-19T09:04:34;9.77;;;3.30;;
69847;SDS011;57143;55.940;37.496;2023-11-19T09:07:03;11.37;;;3.63;;
69847;SDS011;57143;55.940;37.496;2023-11-19T09:09:31;7.18;;;2.00;;
69847;SDS011;57143;55.940;37.496;2023-11-19T09:12:01;11.57;;;3.65;;
69847;SDS011;57143;55.940;37.496;2023-11-19T09:14:28;12.88;;;3.67;;
69847;SDS011;57143;55.940;37.496;2023-11-19T09:16:55;13.85;;;3.40;;
69847;SDS011;57143;55.940;37.496;2023-11-19T09:19:23;7.93;;;2.43;;
69847;SDS011;57143;55.940;37.496;2023-11-19T09:21:51;9.68;;;2.92;;
69847;SDS011;57143;55.940;37.496;2023-11-19T09:24:20;8.82;;;3.30;;
69847;SDS011;57143;55.940;37.496;2023-11-19T09:26:47;8.68;;;2.33;;
69847;SDS011;57143;55.940;37.496;2023-11-19T09:29:14;9.75;;;3.08;;
69847;SDS011;57143;55.940;37.496;2023-11-19T09:31:42;11.30;;;3.07;;
69847;SDS011;57143;55.940;37.496;2023-11-19T09:34:09;8.55;;;2.58;;
69847;SDS011;57143;55.940;37.496;2023-11-19T09:36:36;8.32;;;3.25;;
69847;SDS011;57143;55.940;37.496;2023-11-19T09:39:04;8.80;;;3.17;;
69847;SDS011;57143;55.940;37.496;2023-11-19T09:41:34;8.73;;;3.00;;
69847;SDS011;57143;55.940;37.496;2023-11-19T09:44:04;8.70;;;3.27;;
69847;SDS011;57143;55.940;37.496;2023-11-19T09:46:31;9.93;;;2.88;;
69847;SDS011;57143;55.940;37.496;2023-11-19T09:49:00;10.88;;;3.85;;
69847;SDS011;57143;55.940;37.496;2023-11-19T09:51:29;8.68;;;3.00;;
69847;SDS011;57143;55.940;37.496;2023-11-19T09:53:56;16.15;;;6.28;;
69847;SDS011;57143;55.940;37.496;2023-11-19T09:56:24;17.50;;;7.03;;
69847;SDS011;57143;55.940;37.496;2023-11-19T09:58:53;16.80;;;7.78;;
69847;SDS011;57143;55.940;37.496;2023-11-19T10:01:21;16.15;;;6.40;;
69847;SDS011;57143;55.940;37.496;2023-11-19T10:03:48;17.65;;;7.55;;
69847;SDS011;57143;55.940;37.496;2023-11-19T10:06:16;20.75;;;8.52;;
69847;SDS011;57143;55.940;37.496;2023-11-19T10:08:44;16.97;;;6.30;;
69847;SDS011;57143;55.940;37.496;2023-11-19T10:11:11;18.08;;;8.25;;
69847;SDS011;57143;55.940;37.496;2023-11-19T10:13:40;18.17;;;7.68;;
69847;SDS011;57143;55.940;37.496;2023-11-19T10:16:09;17.92;;;6.50;;
69847;SDS011;57143;55.940;37.496;2023-11-19T10:18:42;25.63;;;8.00;;
69847;SDS011;57143;55.940;37.496;2023-11-19T10:21:11;18.40;;;6.47;;
69847;SDS011;57143;55.940;37.496;2023-11-19T10:23:47;15.98;;;7.25;;
69847;SDS011;57143;55.940;37.496;2023-11-19T10:26:16;19.63;;;7.18;;
69847;SDS011;57143;55.940;37.496;2023-11-19T10:28:45;13.20;;;5.25;;
69847;SDS011;57143;55.940;37.496;2023-11-19T10:31:14;13.98;;;6.75;;
69847;SDS011;57143;55.940;37.496;2023-11-19T10:33:42;16.50;;;7.17;;
69847;SDS011;57143;55.940;37.496;2023-11-19T10:36:10;19.63;;;7.65;;
69847;SDS011;57143;55.940;37.496;2023-11-19T10:38:38;15.38;;;5.50;;
69847;SDS011;57143;55.940;37.496;2023-11-19T10:41:06;14.63;;;6.82;;
69847;SDS011;57143;55.940;37.496;2023-11-19T10:43:45;18.52;;;8.18;;
69847;SDS011;57143;55.940;37.496;2023-11-19T10:46:14;17.00;;;6.37;;
69847;SDS011;57143;55.940;37.496;2023-11-19T10:48:46;20.60;;;6.82;;
69847;SDS011;57143;55.940;37.496;2023-11-19T10:51:13;22.73;;;6.68;;
69847;SDS011;57143;55.940;37.496;2023-11-19T10:53:47;18.23;;;7.10;;
69847;SDS011;57143;55.940;37.496;2023-11-19T10:56:16;21.35;;;8.15;;
69847;SDS011;57143;55.940;37.496;2023-11-19T10:58:47;19.57;;;7.63;;
69847;SDS011;57143;55.940;37.496;2023-11-19T11:01:20;21.42;;;7.22;;
69847;SDS011;57143;55.940;37.496;2023-11-19T11:03:50;20.63;;;8.27;;
69847;SDS011;57143;55.940;37.496;2023-11-19T11:06:19;18.20;;;8.13;;
69847;SDS011;57143;55.940;37.496;2023-11-19T11:08:49;22.52;;;8.98;;
69847;SDS011;57143;55.940;37.496;2023-11-19T11:11:17;24.93;;;9.27;;
69847;SDS011;57143;55.940;37.496;2023-11-19T11:13:46;21.58;;;8.15;;
69847;SDS011;57143;55.940;37.496;2023-11-19T11:16:15;20.75;;;9.30;;
69847;SDS011;57143;55.940;37.496;2023-11-19T11:18:47;22.33;;;8.68;;
69847;SDS011;57143;55.940;37.496;2023-11-19T11:21:16;24.38;;;9.27;;
69847;SDS011;57143;55.940;37.496;2023-11-19T11:24:06;19.47;;;7.20;;
69847;SDS011;57143;55.940;37.496;2023-11-19T11:27:02;17.75;;;7.32;;
69847;SDS011;57143;55.940;37.496;2023-11-19T11:29:55;19.20;;;7.50;;
69847;SDS011;57143;55.940;37.496;2023-11-19T11:32:33;22.20;;;7.63;;
69847;SDS011;57143;55.940;37.496;2023-11-19T11:35:12;15.50;;;5.65;;
69847;SDS011;57143;55.940;37.496;2023-11-19T11:37:53;12.80;;;6.00;;
69847;SDS011;57143;55.940;37.496;2023-11-19T11:40:26;17.83;;;6.80;;
69847;SDS011;57143;55.940;37.496;2023-11-19T11:42:53;12.57;;;5.55;;
69847;SDS011;57143;55.940;37.496;2023-11-19T11:45:20;21.50;;;6.75;;
69847;SDS011;57143;55.940;37.496;2023-11-19T11:48:13;11.38;;;5.50;;
69847;SDS011;57143;55.940;37.496;2023-11-19T11:50:52;20.67;;;7.03;;
69847;SDS011;57143;55.940;37.496;2023-11-19T11:53:20;20.27;;;6.90;;
69847;SDS011;57143;55.940;37.496;2023-11-19T11:55:52;20.13;;;7.57;;
69847;SDS011;57143;55.940;37.496;2023-11-19T11:58:25;20.35;;;6.13;;
69847;SDS011;57143;55.940;37.496;2023-11-19T12:00:53;17.40;;;6.65;;
69847;SDS011;57143;55.940;37.496;2023-11-19T12:03:26;21.03;;;6.07;;
69847;SDS011;57143;55.940;37.496;2023-11-19T12:05:54;14.00;;;6.20;;
69847;SDS011;57143;55.940;37.496;2023-11-19T12:08:24;15.27;;;5.60;;
69847;SDS011;57143;55.940;37.496;2023-11-19T12:10:53;16.33;;;6.88;;
69847;SDS011;57143;55.940;37.496;2023-11-19T12:13:23;16.63;;;6.57;;
69847;SDS011;57143;55.940;37.496;2023-11-19T12:16:07;10.83;;;4.40;;
69847;SDS011;57143;55.940;37.496;2023-11-19T12:18:36;15.02;;;6.53;;
69847;SDS011;57143;55.940;37.496;2023-11-19T12:21:07;16.05;;;6.50;;
69847;SDS011;57143;55.940;37.496;2023-11-19T12:23:43;13.65;;;6.10;;
69847;SDS011;57143;55.940;37.496;2023-11-19T12:29:06;12.33;;;5.37;;
69847;SDS011;57143;55.940;37.496;2023-11-19T12:31:34;14.85;;;6.22;;
69847;SDS011;57143;55.940;37.496;2023-11-19T12:34:09;19.98;;;8.30;;
69847;SDS011;57143;55.940;37.496;2023-11-19T12:36:39;16.05;;;6.72;;
69847;SDS011;57143;55.940;37.496;2023-11-19T12:39:06;19.58;;;5.88;;
69847;SDS011;57143;55.940;37.496;2023-11-19T12:41:48;17.27;;;6.03;;
69847;SDS011;57143;55.940;37.496;2023-11-19T12:44:16;13.80;;;5.25;;
69847;SDS011;57143;55.940;37.496;2023-11-19T12:46:44;13.52;;;5.82;;
69847;SDS011;57143;55.940;37.496;2023-11-19T12:49:12;13.43;;;5.95;;
69847;SDS011;57143;55.940;37.496;2023-11-19T12:51:40;19.98;;;6.53;;
69847;SDS011;57143;55.940;37.496;2023-11-19T12:54:07;13.90;;;5.07;;
69847;SDS011;57143;55.940;37.496;2023-11-19T12:56:34;14.85;;;6.32;;
69847;SDS011;57143;55.940;37.496;2023-11-19T12:59:10;14.18;;;6.50;;
69847;SDS011;57143;55.940;37.496;2023-11-19T13:01:38;14.35;;;4.55;;
69847;SDS011;57143;55.940;37.496;2023-11-19T13:04:18;12.80;;;5.70;;
69847;SDS011;57143;55.940;37.496;2023-11-19T13:06:45;15.97;;;6.00;;
69847;SDS011;57143;55.940;37.496;2023-11-19T13:09:22;12.25;;;4.93;;
69847;SDS011;57143;55.940;37.496;2023-11-19T13:11:50;15.35;;;4.40;;
69847;SDS011;57143;55.940;37.496;2023-11-19T13:14:18;11.98;;;3.70;;
69847;SDS011;57143;55.940;37.496;2023-11-19T13:16:46;8.68;;;3.53;;
69847;SDS011;57143;55.940;37.496;2023-11-19T13:19:14;11.57;;;4.17;;
69847;SDS011;57143;55.940;37.496;2023-11-19T13:21:45;10.98;;;4.70;;
69847;SDS011;57143;55.940;37.496;2023-11-19T13:24:13;15.32;;;6.15;;
69847;SDS011;57143;55.940;37.496;2023-11-19T13:26:40;16.60;;;5.20;;
69847;SDS011;57143;55.940;37.496;2023-11-19T13:29:08;14.88;;;5.63;;
69847;SDS011;57143;55.940;37.496;2023-11-19T13:31:36;13.77;;;5.23;;
69847;SDS011;57143;55.940;37.496;2023-11-19T13:34:04;10.13;;;3.45;;
69847;SDS011;57143;55.940;37.496;2023-11-19T13:36:33;17.98;;;7.30;;
69847;SDS011;57143;55.940;37.496;2023-11-19T13:39:01;12.55;;;3.22;;
69847;SDS011;57143;55.940;37.496;2023-11-19T13:41:29;12.98;;;5.38;;
69847;SDS011;57143;55.940;37.496;2023-11-19T13:43:56;18.30;;;4.93;;
69847;SDS011;57143;55.940;37.496;2023-11-19T13:46:24;18.38;;;5.13;;
69847;SDS011;57143;55.940;37.496;2023-11-19T13:48:51;10.00;;;4.28;;
69847;SDS011;57143;55.940;37.496;2023-11-19T13:51:19;13.43;;;4.97;;
69847;SDS011;57143;55.940;37.496;2023-11-19T13:53:47;15.18;;;4.60;;
69847;SDS011;57143;55.940;37.496;2023-11-19T13:56:15;9.37;;;3.50;;
69847;SDS011;57143;55.940;37.496;2023-11-19T13:58:43;10.63;;;4.65;;
69847;SDS011;57143;55.940;37.496;2023-11-19T14:01:11;9.45;;;3.58;;
69847;SDS011;57143;55.940;37.496;2023-11-19T14:03:40;18.98;;;5.57;;
69847;SDS011;57143;55.940;37.496;2023-11-19T14:06:07;17.00;;;4.70;;
69847;SDS011;57143;55.940;37.496;2023-11-19T14:08:35;14.77;;;6.10;;
69847;SDS011;57143;55.940;37.496;2023-11-19T14:11:02;11.15;;;3.90;;
69847;SDS011;57143;55.940;37.496;2023-11-19T14:13:31;13.65;;;5.30;;
69847;SDS011;57143;55.940;37.496;2023-11-19T14:16:00;14.13;;;5.35;;
69847;SDS011;57143;55.940;37.496;2023-11-19T14:18:27;16.95;;;4.63;;
69847;SDS011;57143;55.940;37.496;2023-11-19T14:20:54;14.40;;;5.70;;
69847;SDS011;57143;55.940;37.496;2023-11-19T14:23:21;19.38;;;5.78;;
69847;SDS011;57143;55.940;37.496;2023-11-19T14:25:49;14.40;;;5.60;;
69847;SDS011;57143;55.940;37.496;2023-11-19T14:28:16;13.38;;;3.78;;
69847;SDS011;57143;55.940;37.496;2023-11-19T14:30:46;24.17;;;5.85;;
69847;SDS011;57143;55.940;37.496;2023-11-19T14:33:19;14.60;;;4.63;;